createdAt,value
2024-03-05T00:00:36.968Z,30.27
2024-03-05T00:03:05.866Z,31.92
2024-03-05T00:05:32.673Z,32.50
2024-03-05T00:07:59.535Z,35.15
2024-03-05T00:10:26.368Z,31.48
2024-03-05T00:12:53.971Z,30.30
2024-03-05T00:15:20.777Z,30.65
2024-03-05T00:17:47.619Z,30.48
2024-03-05T00:20:19.913Z,29.48
2024-03-05T00:22:48.218Z,31.23
2024-03-05T00:25:15.598Z,30.48
2024-03-05T00:27:42.513Z,30.85
2024-03-05T00:30:11.312Z,30.83
2024-03-05T00:32:41.122Z,29.00
2024-03-05T00:35:09.233Z,32.47
2024-03-05T00:37:37.165Z,32.38
2024-03-05T00:40:09.956Z,29.30
2024-03-05T00:42:40.211Z,29.77
2024-03-05T00:45:13.306Z,30.90
2024-03-05T00:47:40.155Z,29.33
2024-03-05T00:50:08.322Z,28.15
2024-03-05T00:52:38.149Z,30.00
2024-03-05T00:55:08.575Z,30.17
2024-03-05T00:57:36.262Z,31.17
2024-03-05T01:00:03.737Z,30.55
2024-03-05T01:02:30.964Z,30.83
2024-03-05T01:04:57.834Z,30.90
2024-03-05T01:07:24.699Z,30.80
2024-03-05T01:09:51.466Z,29.42
2024-03-05T01:12:18.248Z,30.35
2024-03-05T01:14:45.926Z,30.58
2024-03-05T01:17:13.825Z,30.52
2024-03-05T01:19:40.802Z,30.92
2024-03-05T01:22:07.619Z,31.95
2024-03-05T01:24:34.412Z,31.88
2024-03-05T01:27:01.168Z,29.98
2024-03-05T01:29:30.540Z,32.10
2024-03-05T01:31:59.648Z,29.08
2024-03-05T01:34:27.161Z,31.17
2024-03-05T01:37:00.262Z,28.98
2024-03-05T01:39:29.247Z,31.48
2024-03-05T01:41:56.786Z,31.55
2024-03-05T01:44:26.556Z,31.48
2024-03-05T01:46:57.116Z,32.92
2024-03-05T01:49:26.417Z,32.73
2024-03-05T01:51:56.488Z,33.75
2024-03-05T01:54:25.978Z,35.50
2024-03-05T01:56:58.382Z,37.30
2024-03-05T01:59:26.210Z,39.25
2024-03-05T02:01:54.354Z,41.75
2024-03-05T02:04:22.730Z,45.17
2024-03-05T02:06:52.896Z,46.47
2024-03-05T02:09:22.701Z,48.83
2024-03-05T02:11:56.108Z,49.13
2024-03-05T02:14:29.411Z,48.60
2024-03-05T02:16:59.050Z,43.58
2024-03-05T02:19:26.503Z,43.28
2024-03-05T02:22:04.296Z,44.20
2024-03-05T02:24:31.582Z,40.40
2024-03-05T02:27:02.174Z,39.17
2024-03-05T02:29:31.015Z,34.17
2024-03-05T02:31:58.341Z,35.70
2024-03-05T02:34:25.217Z,38.92
2024-03-05T02:36:52.219Z,33.65
2024-03-05T02:39:19.175Z,37.50
2024-03-05T02:41:45.976Z,35.30
2024-03-05T02:44:13.185Z,32.97
2024-03-05T02:46:39.950Z,31.88
2024-03-05T02:49:06.691Z,34.42
2024-03-05T02:51:33.463Z,34.60
2024-03-05T02:54:00.449Z,36.90
2024-03-05T02:56:27.305Z,37.50
2024-03-05T02:58:54.069Z,35.58
2024-03-05T03:01:20.930Z,34.50
2024-03-05T03:03:48.028Z,36.90
2024-03-05T03:06:18.871Z,36.42
2024-03-05T03:08:45.702Z,37.20
2024-03-05T03:11:16.764Z,36.35
2024-03-05T03:13:45.450Z,37.00
2024-03-05T03:16:12.434Z,39.95
2024-03-05T03:18:39.390Z,38.00
2024-03-05T03:21:06.248Z,39.97
2024-03-05T03:23:33.025Z,36.20
2024-03-05T03:25:59.876Z,37.83
2024-03-05T03:28:26.743Z,40.15
2024-03-05T03:30:56.114Z,37.83
2024-03-05T03:33:23.292Z,37.13
2024-03-05T03:35:50.183Z,39.53
2024-03-05T03:38:17.056Z,35.78
2024-03-05T03:40:43.997Z,37.88
2024-03-05T03:43:15.911Z,35.92
2024-03-05T03:45:43.747Z,37.50
2024-03-05T03:48:10.504Z,38.38
2024-03-05T03:50:38.852Z,39.42
2024-03-05T03:53:06.351Z,39.03
2024-03-05T03:55:33.527Z,40.85
2024-03-05T03:58:00.382Z,40.30
2024-03-05T04:00:27.345Z,39.35
2024-03-05T04:02:54.166Z,39.53
2024-03-05T04:05:21.137Z,39.63
2024-03-05T04:07:48.003Z,42.40
2024-03-05T04:10:16.628Z,40.88
2024-03-05T04:12:43.986Z,39.70
2024-03-05T04:15:13.687Z,39.80
2024-03-05T04:17:41.095Z,37.92
2024-03-05T04:20:10.590Z,41.67
2024-03-05T04:22:41.052Z,38.65
2024-03-05T04:25:08.655Z,37.92
2024-03-05T04:27:37.894Z,44.65
2024-03-05T04:30:11.679Z,40.03
2024-03-05T04:32:42.113Z,37.42
2024-03-05T04:35:12.719Z,35.65
2024-03-05T04:37:41.165Z,34.83
2024-03-05T04:40:11.567Z,36.78
2024-03-05T04:42:38.649Z,37.97
2024-03-05T04:45:05.821Z,38.20
2024-03-05T04:47:33.074Z,32.83
2024-03-05T04:50:00.736Z,34.50
2024-03-05T04:52:30.866Z,36.72
2024-03-05T04:54:59.276Z,39.35
2024-03-05T04:57:26.164Z,39.70
2024-03-05T04:59:53.729Z,37.15
2024-03-05T05:02:20.762Z,42.17
2024-03-05T05:04:49.218Z,41.88
2024-03-05T05:07:17.834Z,39.00
2024-03-05T05:09:45.528Z,38.22
2024-03-05T05:12:13.216Z,41.88
2024-03-05T05:14:40.038Z,37.55
2024-03-05T05:17:07.195Z,38.20
2024-03-05T05:19:34.070Z,37.95
2024-03-05T05:22:00.838Z,37.88
2024-03-05T05:24:27.566Z,40.80
2024-03-05T05:26:54.474Z,36.90
2024-03-05T05:29:31.326Z,39.80
2024-03-05T05:32:08.683Z,37.50
2024-03-05T05:34:36.480Z,37.03
2024-03-05T05:37:03.338Z,38.80
2024-03-05T05:39:30.281Z,39.58
2024-03-05T05:41:57.388Z,38.72
2024-03-05T05:44:24.382Z,38.25
2024-03-05T05:46:52.052Z,40.25
2024-03-05T05:49:22.059Z,40.55
2024-03-05T05:51:49.712Z,37.75
2024-03-05T05:54:19.822Z,35.97
2024-03-05T05:56:49.688Z,40.28
2024-03-05T05:59:17.101Z,40.10
2024-03-05T06:01:45.003Z,39.42
2024-03-05T06:04:12.755Z,38.22
2024-03-05T06:06:39.945Z,37.50
2024-03-05T06:09:09.819Z,38.15
2024-03-05T06:11:40.221Z,39.05
2024-03-05T06:14:10.049Z,38.00
2024-03-05T06:16:36.846Z,39.65
2024-03-05T06:19:03.767Z,39.40
2024-03-05T06:21:30.636Z,43.50
2024-03-05T06:23:57.494Z,39.15
2024-03-05T06:26:24.392Z,35.75
2024-03-05T06:28:51.289Z,35.33
2024-03-05T06:31:18.221Z,36.75
2024-03-05T06:33:45.446Z,39.15
2024-03-05T06:36:13.765Z,39.47
2024-03-05T06:38:40.974Z,35.95
2024-03-05T06:41:10.811Z,37.47
2024-03-05T06:43:38.705Z,36.78
2024-03-05T06:46:06.194Z,39.47
2024-03-05T06:48:34.549Z,38.83
2024-03-05T06:51:04.721Z,38.20
2024-03-05T06:53:50.217Z,40.13
2024-03-05T06:56:35.867Z,40.03
2024-03-05T06:59:04.902Z,38.03
2024-03-05T07:01:33.985Z,37.28
2024-03-05T07:04:02.673Z,38.22
2024-03-05T07:06:29.580Z,38.47
2024-03-05T07:08:57.643Z,40.65
2024-03-05T07:11:26.782Z,40.67
2024-03-05T07:13:55.030Z,39.65
2024-03-05T07:16:22.272Z,38.08
2024-03-05T07:18:57.141Z,37.03
2024-03-05T07:21:25.857Z,39.97
2024-03-05T07:23:55.086Z,39.55
2024-03-05T07:26:22.975Z,39.30
2024-03-05T07:28:49.961Z,41.03
2024-03-05T07:31:18.327Z,37.38
2024-03-05T07:33:48.824Z,40.72
2024-03-05T07:36:18.758Z,38.08
2024-03-05T07:38:45.853Z,38.50
2024-03-05T07:41:18.204Z,39.38
2024-03-05T07:43:53.248Z,36.38
2024-03-05T07:46:20.373Z,38.80
2024-03-05T07:48:47.400Z,38.53
2024-03-05T07:51:19.564Z,40.65
2024-03-05T07:53:51.435Z,39.10
2024-03-05T07:56:18.303Z,40.92
2024-03-05T07:58:46.012Z,39.13
2024-03-05T08:01:13.052Z,37.72
2024-03-05T08:03:42.283Z,36.17
2024-03-05T08:06:09.283Z,38.60
2024-03-05T08:08:36.179Z,39.47
2024-03-05T08:11:03.223Z,36.45
2024-03-05T08:13:30.160Z,38.10
2024-03-05T08:15:56.998Z,35.05
2024-03-05T08:18:26.729Z,38.30
2024-03-05T08:20:53.539Z,38.80
2024-03-05T08:23:20.295Z,35.05
2024-03-05T08:25:49.713Z,35.70
2024-03-05T08:28:16.577Z,35.58
2024-03-05T08:30:43.926Z,34.10
2024-03-05T08:33:11.491Z,33.70
2024-03-05T08:35:38.476Z,32.97
2024-03-05T08:38:05.528Z,35.22
2024-03-05T08:40:36.749Z,33.45
2024-03-05T08:43:05.131Z,33.35
2024-03-05T08:45:33.204Z,31.10
2024-03-05T08:48:00.344Z,32.75
2024-03-05T08:50:30.463Z,30.50
2024-03-05T08:52:59.510Z,31.95
2024-03-05T08:55:27.421Z,32.47
2024-03-05T08:57:56.658Z,32.33
2024-03-05T09:00:33.491Z,31.52
2024-03-05T09:03:09.487Z,31.40
2024-03-05T09:05:37.178Z,30.83
2024-03-05T09:08:06.356Z,33.47
2024-03-05T09:10:33.929Z,30.10
2024-03-05T09:13:01.220Z,32.00
2024-03-05T09:15:28.197Z,31.27
2024-03-05T09:17:55.243Z,30.63
2024-03-05T09:20:22.146Z,30.17
2024-03-05T09:22:49.054Z,29.48
2024-03-05T09:25:17.258Z,29.02
2024-03-05T09:27:46.612Z,30.65
2024-03-05T09:30:19.708Z,29.45
2024-03-05T09:32:47.993Z,30.55
2024-03-05T09:35:16.541Z,29.67
2024-03-05T09:37:46.771Z,30.45
2024-03-05T09:40:20.923Z,30.23
2024-03-05T09:42:48.461Z,30.05
2024-03-05T09:45:17.290Z,29.25
2024-03-05T09:47:45.145Z,28.45
2024-03-05T09:50:17.283Z,26.67
2024-03-05T09:52:48.181Z,26.17
2024-03-05T09:55:16.456Z,27.05
2024-03-05T09:57:49.827Z,27.30
2024-03-05T10:00:18.912Z,27.23
2024-03-05T10:02:51.948Z,28.27
2024-03-05T10:05:19.796Z,26.77
2024-03-05T10:07:48.123Z,27.15
2024-03-05T10:10:19.272Z,26.58
2024-03-05T10:12:46.097Z,25.90
2024-03-05T10:15:23.781Z,27.30
2024-03-05T10:17:54.132Z,27.60
2024-03-05T10:20:33.302Z,26.85
2024-03-05T10:23:03.097Z,25.50
2024-03-05T10:25:32.680Z,26.70
2024-03-05T10:28:00.999Z,25.33
2024-03-05T10:30:40.442Z,25.70
2024-03-05T10:33:11.670Z,25.45
2024-03-05T10:35:40.324Z,26.80
2024-03-05T10:38:13.430Z,25.52
2024-03-05T10:40:45.395Z,25.58
2024-03-05T10:43:17.165Z,23.70
2024-03-05T10:45:45.940Z,24.60
2024-03-05T10:48:16.269Z,23.35
2024-03-05T10:50:47.893Z,24.98
2024-03-05T10:53:17.837Z,26.00
2024-03-05T10:55:46.020Z,23.55
2024-03-05T10:58:14.961Z,25.35
2024-03-05T11:00:44.872Z,23.75
2024-03-05T11:03:14.363Z,23.48
2024-03-05T11:05:46.964Z,22.85
2024-03-05T11:08:17.905Z,21.85
2024-03-05T11:10:50.966Z,22.38
2024-03-05T11:13:19.483Z,20.42
2024-03-05T11:15:46.787Z,19.58
2024-03-05T11:18:34.240Z,21.33
2024-03-05T11:21:15.808Z,22.13
2024-03-05T11:23:51.694Z,19.80
2024-03-05T11:26:23.975Z,19.67
2024-03-05T11:28:54.436Z,19.45
2024-03-05T11:31:22.485Z,19.25
2024-03-05T11:34:10.545Z,18.80
2024-03-05T11:36:37.974Z,17.83
2024-03-05T11:39:10.180Z,17.45
2024-03-05T11:41:43.215Z,16.25
2024-03-05T11:44:33.549Z,15.23
2024-03-05T11:47:00.366Z,15.68
2024-03-05T11:49:27.364Z,16.00
2024-03-05T11:51:54.261Z,17.35
2024-03-05T11:54:24.890Z,15.05
2024-03-05T11:56:59.993Z,16.33
2024-03-05T11:59:40.445Z,15.13
2024-03-05T12:02:11.797Z,14.73
2024-03-05T12:04:42.962Z,13.65
2024-03-05T12:07:14.136Z,13.52
2024-03-05T12:09:41.751Z,13.52
2024-03-05T12:12:13.237Z,12.35
2024-03-05T12:14:52.420Z,11.93
2024-03-05T12:17:19.995Z,12.00
2024-03-05T12:19:56.343Z,12.48
2024-03-05T12:22:24.225Z,10.43
2024-03-05T12:24:51.193Z,9.43
2024-03-05T12:27:18.575Z,8.85
2024-03-05T12:29:45.505Z,9.27
2024-03-05T12:32:13.833Z,7.95
2024-03-05T12:34:45.161Z,8.35
2024-03-05T12:37:12.889Z,6.55
2024-03-05T12:39:43.883Z,6.38
2024-03-05T12:42:12.576Z,6.75
2024-03-05T12:44:39.579Z,6.50
2024-03-05T12:47:15.175Z,5.07
2024-03-05T12:49:49.779Z,5.70
2024-03-05T12:52:20.949Z,6.13
2024-03-05T12:54:57.971Z,5.63
2024-03-05T12:57:25.559Z,5.10
2024-03-05T12:59:52.654Z,5.03
2024-03-05T13:02:19.601Z,4.68
2024-03-05T13:04:47.040Z,5.10
2024-03-05T13:07:14.400Z,4.35
2024-03-05T13:09:41.242Z,4.65
2024-03-05T13:12:11.673Z,3.55
2024-03-05T13:14:38.500Z,4.38
2024-03-05T13:17:08.151Z,4.30
2024-03-05T13:19:35.120Z,4.38
2024-03-05T13:22:05.630Z,4.15
2024-03-05T13:24:32.572Z,3.90
2024-03-05T13:27:00.759Z,3.47
2024-03-05T13:29:27.660Z,4.18
2024-03-05T13:31:54.539Z,4.28
2024-03-05T13:34:23.732Z,4.20
2024-03-05T13:36:50.808Z,4.30
2024-03-05T13:39:19.546Z,4.22
2024-03-05T13:41:48.767Z,3.80
2024-03-05T13:44:16.148Z,3.72
2024-03-05T13:46:43.321Z,3.95
2024-03-05T13:49:12.540Z,3.92
2024-03-05T13:51:39.711Z,3.75
2024-03-05T13:54:07.458Z,4.10
2024-03-05T13:56:34.447Z,3.78
2024-03-05T13:59:06.811Z,3.85
2024-03-05T14:01:34.054Z,4.30
2024-03-05T14:04:01.009Z,3.38
2024-03-05T14:06:28.693Z,3.63
2024-03-05T14:08:57.625Z,3.70
2024-03-05T14:11:27.217Z,3.63
2024-03-05T14:13:54.111Z,4.07
2024-03-05T14:16:22.949Z,3.80
2024-03-05T14:18:49.923Z,3.40
2024-03-05T14:21:19.389Z,3.42
2024-03-05T14:23:46.135Z,3.25
2024-03-05T14:26:13.379Z,3.75
2024-03-05T14:28:40.227Z,3.75
2024-03-05T14:31:08.005Z,3.70
2024-03-05T14:33:34.866Z,3.88
2024-03-05T14:36:01.933Z,4.07
2024-03-05T14:38:32.358Z,4.25
2024-03-05T14:40:59.332Z,4.65
2024-03-05T14:43:28.547Z,4.78
2024-03-05T14:45:55.837Z,4.60
2024-03-05T14:48:24.794Z,5.90
2024-03-05T14:50:54.015Z,5.60
2024-03-05T14:53:21.509Z,4.88
2024-03-05T14:55:48.583Z,4.57
2024-03-05T14:58:15.737Z,4.30
2024-03-05T15:00:43.514Z,4.43
2024-03-05T15:03:10.505Z,3.97
2024-03-05T15:05:37.275Z,4.03
2024-03-05T15:08:04.399Z,3.92
2024-03-05T15:10:32.261Z,3.78
2024-03-05T15:12:59.216Z,3.28
2024-03-05T15:15:26.224Z,3.20
2024-03-05T15:17:53.148Z,4.07
2024-03-05T15:20:20.460Z,3.15
2024-03-05T15:22:52.103Z,3.13
2024-03-05T15:28:01.063Z,3.40
2024-03-05T15:30:33.372Z,3.53
2024-03-05T15:33:01.545Z,3.38
2024-03-05T15:35:29.803Z,2.75
2024-03-05T15:37:58.971Z,2.78
2024-03-05T15:40:27.097Z,3.30
2024-03-05T15:42:56.505Z,3.25
2024-03-05T15:45:30.603Z,2.65
2024-03-05T15:47:59.594Z,2.70
2024-03-05T15:50:30.974Z,2.58
2024-03-05T15:53:04.113Z,3.35
2024-03-05T15:55:32.964Z,3.65
2024-03-05T15:57:59.957Z,3.15
2024-03-05T16:00:36.139Z,2.92
2024-03-05T16:03:09.365Z,2.80
2024-03-05T16:05:46.318Z,2.85
2024-03-05T16:08:21.886Z,3.13
2024-03-05T16:10:49.871Z,3.08
2024-03-05T16:13:17.701Z,2.75
2024-03-05T16:15:46.757Z,2.97
2024-03-05T16:18:17.448Z,2.70
2024-03-05T16:20:44.604Z,2.53
2024-03-05T16:23:12.168Z,2.88
2024-03-05T16:25:43.121Z,2.45
2024-03-05T16:28:11.393Z,3.15
2024-03-05T16:30:39.228Z,2.40
2024-03-05T16:33:07.166Z,2.40
2024-03-05T16:35:36.529Z,2.25
2024-03-05T16:38:05.088Z,2.60
2024-03-05T16:40:36.600Z,2.35
2024-03-05T16:45:31.132Z,2.58
2024-03-05T16:48:02.350Z,2.72
2024-03-05T16:50:30.863Z,2.20
2024-03-05T16:52:58.948Z,2.95
2024-03-05T16:55:27.289Z,2.67
2024-03-05T16:58:00.577Z,2.67
2024-03-05T17:00:32.006Z,3.20
2024-03-05T17:03:08.731Z,3.10
2024-03-05T17:05:38.164Z,2.78
2024-03-05T17:08:16.425Z,2.90
2024-03-05T17:10:45.647Z,3.00
2024-03-05T17:13:19.670Z,2.72
2024-03-05T17:15:52.931Z,3.05
2024-03-05T17:18:23.098Z,2.70
2024-03-05T17:20:51.819Z,3.08
2024-03-05T17:23:25.727Z,3.15
2024-03-05T17:25:55.900Z,2.90
2024-03-05T17:28:23.323Z,2.72
2024-03-05T17:30:50.230Z,2.78
2024-03-05T17:33:17.302Z,2.55
2024-03-05T17:35:44.535Z,2.42
2024-03-05T17:38:14.031Z,2.35
2024-03-05T17:40:41.360Z,2.70
2024-03-05T17:43:08.383Z,2.20
2024-03-05T17:45:35.269Z,2.53
2024-03-05T17:48:08.520Z,2.40
2024-03-05T17:50:35.853Z,3.25
2024-03-05T17:53:06.283Z,3.72
2024-03-05T17:55:35.263Z,3.85
2024-03-05T17:58:04.836Z,3.22
2024-03-05T18:00:42.277Z,3.05
2024-03-05T18:03:12.544Z,3.65
2024-03-05T18:05:39.946Z,3.08
2024-03-05T18:08:07.282Z,2.90
2024-03-05T18:10:36.317Z,3.25
2024-03-05T18:13:05.994Z,4.05
2024-03-05T18:15:33.146Z,3.95
2024-03-05T18:18:00.214Z,4.43
2024-03-05T18:20:29.970Z,4.70
2024-03-05T18:23:00.470Z,8.85
2024-03-05T18:25:35.327Z,14.15
2024-03-05T18:28:03.678Z,12.82
2024-03-05T18:30:34.109Z,13.63
2024-03-05T18:33:01.863Z,12.48
2024-03-05T18:35:29.229Z,11.27
2024-03-05T18:37:56.397Z,10.98
2024-03-05T18:40:23.544Z,8.77
2024-03-05T18:42:51.553Z,6.57
2024-03-05T18:45:21.007Z,7.15
2024-03-05T18:47:59.156Z,9.23
2024-03-05T18:50:32.609Z,8.32
2024-03-05T18:53:01.104Z,8.18
2024-03-05T18:55:31.021Z,8.82
2024-03-05T18:57:57.916Z,7.75
2024-03-05T19:00:24.956Z,8.10
2024-03-05T19:02:52.206Z,8.57
2024-03-05T19:05:20.110Z,8.75
2024-03-05T19:07:48.931Z,9.27
2024-03-05T19:10:18.440Z,8.93
2024-03-05T19:12:45.649Z,9.43
2024-03-05T19:15:18.514Z,6.10
2024-03-05T19:17:49.007Z,7.68
2024-03-05T19:20:16.336Z,9.60
2024-03-05T19:22:43.337Z,11.57
2024-03-05T19:25:12.767Z,11.07
2024-03-05T19:27:42.333Z,10.50
2024-03-05T19:30:17.190Z,10.25
2024-03-05T19:32:44.862Z,8.95
2024-03-05T19:35:15.121Z,7.97
2024-03-05T19:37:43.179Z,8.40
2024-03-05T19:40:16.987Z,8.82
2024-03-05T19:42:54.985Z,8.45
2024-03-05T19:45:22.735Z,8.80
2024-03-05T19:47:49.904Z,9.38
2024-03-05T19:50:18.655Z,9.00
2024-03-05T19:52:46.905Z,9.13
2024-03-05T19:55:16.119Z,8.82
2024-03-05T19:57:44.111Z,9.32
2024-03-05T20:00:30.381Z,7.55
2024-03-05T20:02:58.236Z,8.65
2024-03-05T20:05:26.693Z,8.35
2024-03-05T20:07:54.246Z,8.15
2024-03-05T20:10:24.998Z,7.57
2024-03-05T20:12:51.937Z,7.63
2024-03-05T20:15:19.109Z,7.38
2024-03-05T20:17:46.191Z,7.85
2024-03-05T20:20:19.730Z,8.05
2024-03-05T20:22:47.936Z,9.93
2024-03-05T20:25:19.083Z,9.77
2024-03-05T20:27:50.998Z,8.55
2024-03-05T20:30:18.124Z,8.65
2024-03-05T20:32:45.916Z,15.77
2024-03-05T20:35:18.051Z,20.40
2024-03-05T20:37:49.885Z,15.35
2024-03-05T20:40:18.386Z,13.30
2024-03-05T20:42:47.670Z,11.63
2024-03-05T20:45:15.641Z,10.60
2024-03-05T20:47:42.900Z,11.63
2024-03-05T20:50:11.632Z,11.40
2024-03-05T20:52:38.873Z,10.77
2024-03-05T20:55:06.816Z,10.45
2024-03-05T20:57:34.558Z,10.57
2024-03-05T21:00:07.999Z,10.30
2024-03-05T21:02:38.020Z,10.25
2024-03-05T21:05:08.460Z,10.55
2024-03-05T21:07:37.275Z,9.65
2024-03-05T21:10:09.316Z,9.88
2024-03-05T21:12:40.702Z,9.38
2024-03-05T21:15:12.383Z,8.65
2024-03-05T21:17:40.676Z,9.82
2024-03-05T21:20:09.089Z,8.50
2024-03-05T21:22:36.882Z,11.13
2024-03-05T21:25:06.746Z,10.15
2024-03-05T21:27:35.914Z,8.95
2024-03-05T21:30:07.798Z,9.05
2024-03-05T21:32:35.235Z,8.30
2024-03-05T21:35:02.456Z,9.10
2024-03-05T21:37:29.350Z,9.40
2024-03-05T21:39:56.333Z,8.68
2024-03-05T21:42:23.108Z,9.15
2024-03-05T21:44:49.993Z,8.05
2024-03-05T21:47:16.895Z,8.43
2024-03-05T21:49:43.778Z,8.20
2024-03-05T21:52:10.761Z,8.80
2024-03-05T21:54:38.089Z,8.50
2024-03-05T21:57:04.943Z,8.27
2024-03-05T21:59:31.818Z,7.75
2024-03-05T22:01:59.014Z,7.70
2024-03-05T22:04:25.966Z,8.60
2024-03-05T22:06:55.807Z,8.10
2024-03-05T22:09:22.891Z,8.18
2024-03-05T22:11:50.079Z,8.05
2024-03-05T22:14:16.950Z,7.65
2024-03-05T22:16:44.166Z,7.75
2024-03-05T22:19:11.041Z,7.07
2024-03-05T22:21:39.030Z,8.23
2024-03-05T22:24:09.728Z,8.07
2024-03-05T22:26:38.440Z,8.67
2024-03-05T22:29:05.544Z,8.00
2024-03-05T22:31:32.568Z,8.23
2024-03-05T22:33:59.469Z,8.00
2024-03-05T22:36:26.402Z,8.57
2024-03-05T22:38:53.241Z,7.63
2024-03-05T22:41:20.391Z,7.68
2024-03-05T22:43:47.570Z,8.10
2024-03-05T22:46:14.778Z,8.07
2024-03-05T22:48:41.814Z,8.45
2024-03-05T22:51:15.404Z,8.18
2024-03-05T22:53:42.415Z,8.18
2024-03-05T22:56:09.563Z,9.43
2024-03-05T22:58:38.083Z,8.73
2024-03-05T23:01:07.953Z,8.77
2024-03-05T23:03:35.438Z,8.18
2024-03-05T23:06:08.486Z,9.00
2024-03-05T23:08:42.202Z,9.52
2024-03-05T23:11:12.138Z,9.25
2024-03-05T23:13:38.999Z,9.10
2024-03-05T23:16:06.747Z,9.43
2024-03-05T23:18:33.755Z,8.45
2024-03-05T23:21:01.199Z,8.73
2024-03-05T23:23:28.545Z,7.53
2024-03-05T23:25:55.459Z,8.60
2024-03-05T23:28:22.508Z,9.50
2024-03-05T23:30:49.931Z,8.55
2024-03-05T23:33:17.066Z,9.88
2024-03-05T23:35:44.352Z,9.55
2024-03-05T23:38:11.258Z,9.20
2024-03-05T23:40:38.283Z,9.20
2024-03-05T23:43:05.292Z,9.68
2024-03-05T23:45:32.158Z,9.10
2024-03-05T23:47:59.070Z,9.85
2024-03-05T23:50:25.874Z,10.13
2024-03-05T23:52:52.827Z,7.78
2024-03-05T23:55:19.977Z,8.77
2024-03-05T23:57:46.891Z,8.10
